« Back
NWS Peachtree City, Ga » Text Product » AHN Terminal Aerodrome Forecast


Printer-friendly Version
Current Version              Previous Versions:   1  2  3  4  5  6  7  8  9  

Terminal Aerodrome Forecast

332
FTUS42 KFFC 211900 AAA
TAFAHN
TAF AMD
KAHN 211949Z 2120/2218 31006KT P6SM VCSH SCT045
      TEMPO 2120/2122 VRB15G25KT 3SM TSRA BKN035CB
     FM220200 00000KT P6SM SKC
     FM221600 31006KT P6SM SCT040=



USA.gov is the U.S. government's official web portal to all federal, state and local government web resources and services.